CGMPW CYUL-KNUW
Flight info
| Callsign | CGMPW |
|---|---|
| Flight time | N/A |
| Altitude | VFR |
| Route | VFR |
| Aircraft | AS50/L-VGD/C |
Departure
| Time | N/A |
|---|---|
| Airport | Montreal / Pierre Elliott Trudeau International Airport (CYUL) |
Arrival
| Time | 2026-05-07 02:08 |
|---|---|
| Airport | Whidbey Island Naval Air Station (Ault Field) (KNUW) |
| Time | Latitude | Longitude | Altitude | Speed | Heading |
|---|---|---|---|---|---|
| 2026-05-07 02:03 | 48.39316 | -122.82031 | 418 ft | 119 kts | 102° |
| 2026-05-07 02:03 | 48.38852 | -122.81165 | 602 ft | 111 kts | 153° |
| 2026-05-07 02:03 | 48.38175 | -122.80365 | 362 ft | 134 kts | 143° |
| 2026-05-07 02:04 | 48.37496 | -122.79368 | 170 ft | 139 kts | 134° |
| 2026-05-07 02:04 | 48.37040 | -122.78097 | 98 ft | 138 kts | 117° |
| 2026-05-07 02:04 | 48.36721 | -122.76746 | 86 ft | 137 kts | 114° |
| 2026-05-07 02:04 | 48.36422 | -122.75381 | 99 ft | 137 kts | 111° |
| 2026-05-07 02:05 | 48.36146 | -122.73998 | 94 ft | 138 kts | 109° |
| 2026-05-07 02:05 | 48.35904 | -122.72604 | 114 ft | 137 kts | 110° |
| 2026-05-07 02:05 | 48.35654 | -122.71246 | 126 ft | 137 kts | 109° |
| 2026-05-07 02:05 | 48.35389 | -122.69854 | 62 ft | 140 kts | 111° |
| 2026-05-07 02:06 | 48.35148 | -122.68471 | 96 ft | 137 kts | 105° |
| 2026-05-07 02:06 | 48.35144 | -122.67000 | 73 ft | 144 kts | 91° |
| 2026-05-07 02:06 | 48.35197 | -122.65476 | 68 ft | 147 kts | 92° |
| 2026-05-07 02:06 | 48.35238 | -122.63932 | 101 ft | 145 kts | 91° |
| 2026-05-07 02:07 | 48.35269 | -122.64229 | 169 ft | 120 kts | 258° |
| 2026-05-07 02:07 | 48.35157 | -122.67078 | 74 ft | 137 kts | 264° |
| 2026-05-07 02:07 | 48.35100 | -122.67294 | 126 ft | 105 kts | 81° |
| 2026-05-07 02:08 | 48.35168 | -122.66012 | 88 ft | 122 kts | 94° |
| 2026-05-07 02:08 | 48.35222 | -122.65011 | 62 ft | 61 kts | 120° |
| 2026-05-07 02:08 | 48.35214 | -122.65050 | 123 ft | 4 kts | 266° |
| 2026-05-07 02:08 | 48.35205 | -122.65055 | 52 ft | 1 kts | 269° |
| 2026-05-07 02:09 | 48.35194 | -122.65581 | 74 ft | 99 kts | 263° |
| 2026-05-07 02:09 | 48.35170 | -122.66758 | 87 ft | 121 kts | 264° |
| 2026-05-07 02:09 | 48.35118 | -122.67539 | 52 ft | 61 kts | 63° |
| 2026-05-07 02:09 | 48.35171 | -122.66630 | 180 ft | 113 kts | 87° |
| 2026-05-07 02:10 | 48.35191 | -122.65534 | 135 ft | 99 kts | 95° |
| 2026-05-07 02:10 | 48.35241 | -122.64625 | 93 ft | 64 kts | 99° |
| 2026-05-07 02:10 | 48.35264 | -122.64181 | 70 ft | 24 kts | 116° |
| 2026-05-07 02:10 | 48.35262 | -122.64065 | 97 ft | 1 kts | 245° |
| 2026-05-07 02:11 | 48.35260 | -122.64069 | 35 ft | 2 kts | 245° |
| 2026-05-07 02:11 | 48.35252 | -122.64130 | 61 ft | 41 kts | 246° |
| 2026-05-07 02:11 | 48.35222 | -122.65108 | 69 ft | 123 kts | 261° |
| 2026-05-07 02:11 | 48.35174 | -122.66503 | 169 ft | 133 kts | 269° |
| 2026-05-07 02:12 | 48.35244 | -122.67821 | 147 ft | 126 kts | 279° |
| 2026-05-07 02:12 | 48.35098 | -122.67782 | 359 ft | 87 kts | 124° |
| 2026-05-07 02:12 | 48.34907 | -122.67205 | 297 ft | 35 kts | 155° |
| 2026-05-07 02:12 | 48.34872 | -122.67206 | 161 ft | 27 kts | 311° |
| 2026-05-07 02:13 | 48.34910 | -122.67168 | 51 ft | 4 kts | 301° |
| 2026-05-07 02:13 | 48.34910 | -122.67163 | 25 ft | 0 kts | 303° |